createdAt,value
2023-03-04T00:00:46.345Z,89.32
2023-03-04T00:03:17.301Z,89.19
2023-03-04T00:05:45.033Z,89.23
2023-03-04T00:08:12.584Z,89.04
2023-03-04T00:10:40.477Z,88.69
2023-03-04T00:13:08.513Z,89.12
2023-03-04T00:15:37.080Z,92.83
2023-03-04T00:18:04.684Z,93.99
2023-03-04T00:20:32.185Z,94.59
2023-03-04T00:22:59.640Z,95.32
2023-03-04T00:25:27.212Z,96.01
2023-03-04T00:27:55.721Z,97.57
2023-03-04T00:30:23.632Z,97.97
2023-03-04T00:32:51.295Z,99.37
2023-03-04T00:35:18.970Z,100.00
2023-03-04T00:37:46.608Z,100.00
2023-03-04T00:40:14.342Z,100.00
2023-03-04T00:42:42.463Z,100.00
2023-03-04T00:45:10.431Z,100.00
2023-03-04T00:47:39.009Z,100.00
2023-03-04T00:50:07.240Z,100.00
2023-03-04T00:52:35.032Z,100.00
2023-03-04T00:55:02.504Z,100.00
2023-03-04T00:57:30.053Z,100.00
2023-03-04T00:59:57.978Z,100.00
2023-03-04T01:02:25.520Z,100.00
2023-03-04T01:04:53.874Z,100.00
2023-03-04T01:07:22.569Z,100.00
2023-03-04T01:09:50.442Z,100.00
2023-03-04T01:12:19.052Z,100.00
2023-03-04T01:14:47.262Z,100.00
2023-03-04T01:17:14.842Z,100.00
2023-03-04T01:19:42.975Z,100.00
2023-03-04T01:22:12.419Z,100.00
2023-03-04T01:24:40.574Z,100.00
2023-03-04T01:27:08.671Z,100.00
2023-03-04T01:29:36.223Z,100.00
2023-03-04T01:32:04.565Z,100.00
2023-03-04T01:34:32.559Z,100.00
2023-03-04T01:37:00.098Z,100.00
2023-03-04T01:39:28.942Z,100.00
2023-03-04T01:41:57.448Z,100.00
2023-03-04T01:44:25.539Z,100.00
2023-03-04T01:46:55.238Z,100.00
2023-03-04T01:49:25.290Z,100.00
2023-03-04T01:51:54.995Z,100.00
2023-03-04T01:54:23.332Z,100.00
2023-03-04T01:56:52.854Z,100.00
2023-03-04T01:59:25.970Z,100.00
2023-03-04T02:02:00.455Z,100.00
2023-03-04T02:04:34.488Z,100.00
2023-03-04T02:07:03.516Z,100.00
2023-03-04T02:09:33.228Z,100.00
2023-03-04T02:12:02.014Z,100.00
2023-03-04T02:14:29.747Z,100.00
2023-03-04T02:16:57.604Z,100.00
2023-03-04T02:19:37.606Z,100.00
2023-03-04T02:22:05.533Z,100.00
2023-03-04T02:24:41.777Z,100.00
2023-03-04T02:27:09.995Z,100.00
2023-03-04T02:29:37.988Z,100.00
2023-03-04T02:32:06.116Z,100.00
2023-03-04T02:34:35.918Z,100.00
2023-03-04T02:37:04.729Z,100.00
2023-03-04T02:39:40.514Z,100.00
2023-03-04T02:42:08.652Z,100.00
2023-03-04T02:44:46.180Z,100.00
2023-03-04T02:47:17.933Z,100.00
2023-03-04T02:49:47.474Z,100.00
2023-03-04T02:52:22.776Z,100.00
2023-03-04T02:54:51.300Z,100.00
2023-03-04T02:57:19.267Z,100.00
2023-03-04T02:59:51.721Z,100.00
2023-03-04T03:02:22.717Z,100.00
2023-03-04T03:04:50.596Z,100.00
2023-03-04T03:07:20.303Z,100.00
2023-03-04T03:09:49.248Z,100.00
2023-03-04T03:12:18.862Z,100.00
2023-03-04T03:14:47.405Z,100.00
2023-03-04T03:17:18.652Z,100.00
2023-03-04T03:19:47.729Z,100.00
2023-03-04T03:22:15.975Z,100.00
2023-03-04T03:24:43.664Z,100.00
2023-03-04T03:27:11.131Z,100.00
2023-03-04T03:29:40.372Z,100.00
2023-03-04T03:32:09.765Z,100.00
2023-03-04T03:34:37.909Z,100.00
2023-03-04T03:37:06.119Z,100.00
2023-03-04T03:39:33.944Z,100.00
2023-03-04T03:42:01.477Z,100.00
2023-03-04T03:44:29.111Z,100.00
2023-03-04T03:46:58.408Z,100.00
2023-03-04T03:49:26.000Z,100.00
2023-03-04T03:51:53.947Z,100.00
2023-03-04T03:54:21.958Z,100.00
2023-03-04T03:56:49.900Z,100.00
2023-03-04T03:59:18.043Z,100.00
2023-03-04T04:01:46.555Z,100.00
2023-03-04T04:04:14.148Z,100.00
2023-03-04T04:06:41.700Z,100.00
2023-03-04T04:09:09.589Z,100.00
2023-03-04T04:11:37.652Z,100.00
2023-03-04T04:14:05.968Z,100.00
2023-03-04T04:16:33.587Z,100.00
2023-03-04T04:19:01.311Z,100.00
2023-03-04T04:21:28.955Z,100.00
2023-03-04T04:23:56.935Z,100.00
2023-03-04T04:26:25.285Z,100.00
2023-03-04T04:28:52.778Z,100.00
2023-03-04T04:31:20.802Z,100.00
2023-03-04T04:33:48.338Z,100.00
2023-03-04T04:36:17.481Z,100.00
2023-03-04T04:38:45.755Z,100.00
2023-03-04T04:41:23.958Z,100.00
2023-03-04T04:43:52.536Z,100.00
2023-03-04T04:46:21.287Z,100.00
2023-03-04T04:48:49.924Z,100.00
2023-03-04T04:51:17.451Z,100.00
2023-03-04T04:53:45.413Z,100.00
2023-03-04T04:56:19.649Z,100.00
2023-03-04T04:58:48.603Z,100.00
2023-03-04T05:01:16.840Z,100.00
2023-03-04T05:03:44.450Z,100.00
2023-03-04T05:06:13.647Z,100.00
2023-03-04T05:08:41.328Z,100.00
2023-03-04T05:11:10.018Z,100.00
2023-03-04T05:13:37.636Z,100.00
2023-03-04T05:16:05.748Z,100.00
2023-03-04T05:18:33.547Z,100.00
2023-03-04T05:21:02.143Z,100.00
2023-03-04T05:23:33.995Z,100.00
2023-03-04T05:26:02.739Z,100.00
2023-03-04T05:28:30.893Z,100.00
2023-03-04T05:30:58.583Z,100.00
2023-03-04T05:33:26.459Z,100.00
2023-03-04T05:35:55.192Z,100.00
2023-03-04T05:38:23.337Z,100.00
2023-03-04T05:40:57.488Z,100.00
2023-03-04T05:43:26.617Z,100.00
2023-03-04T05:45:55.161Z,100.00
2023-03-04T05:48:23.421Z,100.00
2023-03-04T05:50:56.736Z,100.00
2023-03-04T05:53:25.026Z,100.00
2023-03-04T05:55:52.625Z,100.00
2023-03-04T05:58:20.850Z,100.00
2023-03-04T06:00:48.534Z,100.00
2023-03-04T06:03:19.281Z,100.00
2023-03-04T06:05:48.089Z,100.00
2023-03-04T06:08:16.163Z,100.00
2023-03-04T06:10:43.669Z,100.00
2023-03-04T06:13:11.943Z,100.00
2023-03-04T06:15:40.897Z,100.00
2023-03-04T06:18:09.122Z,100.00
2023-03-04T06:20:37.608Z,100.00
2023-03-04T06:23:05.912Z,100.00
2023-03-04T06:25:33.422Z,100.00
2023-03-04T06:28:00.933Z,100.00
2023-03-04T06:30:28.930Z,100.00
2023-03-04T06:32:56.456Z,100.00
2023-03-04T06:35:24.067Z,100.00
2023-03-04T06:37:52.636Z,100.00
2023-03-04T06:40:20.622Z,100.00
2023-03-04T06:42:49.112Z,100.00
2023-03-04T06:45:16.986Z,100.00
2023-03-04T06:47:45.148Z,100.00
2023-03-04T06:50:13.950Z,100.00
2023-03-04T06:52:41.517Z,100.00
2023-03-04T06:55:09.391Z,100.00
2023-03-04T06:57:36.935Z,100.00
2023-03-04T07:00:06.441Z,100.00
2023-03-04T07:02:34.897Z,100.00
2023-03-04T07:05:03.536Z,100.00
2023-03-04T07:07:31.487Z,100.00
2023-03-04T07:09:59.443Z,100.00
2023-03-04T07:12:26.964Z,100.00
2023-03-04T07:14:55.120Z,100.00
2023-03-04T07:17:22.974Z,100.00
2023-03-04T07:19:50.542Z,100.00
2023-03-04T07:22:18.100Z,100.00
2023-03-04T07:24:46.045Z,100.00
2023-03-04T07:27:13.561Z,100.00
2023-03-04T07:29:41.976Z,100.00
2023-03-04T07:32:10.423Z,100.00
2023-03-04T07:34:38.053Z,100.00
2023-03-04T07:37:05.584Z,98.10
2023-03-04T07:39:33.547Z,97.60
2023-03-04T07:42:02.093Z,96.26
2023-03-04T07:44:29.696Z,95.82
2023-03-04T07:46:57.566Z,93.79
2023-03-04T07:49:25.623Z,91.82
2023-03-04T07:51:57.215Z,91.08
2023-03-04T07:54:24.808Z,91.37
2023-03-04T07:56:53.858Z,91.37
2023-03-04T07:59:21.843Z,91.97
2023-03-04T08:01:49.750Z,91.47
2023-03-04T08:04:17.366Z,92.01
2023-03-04T08:06:45.799Z,89.77
2023-03-04T08:09:14.109Z,88.92
2023-03-04T08:11:42.765Z,88.46
2023-03-04T08:14:13.023Z,88.95
2023-03-04T08:16:40.973Z,88.38
2023-03-04T08:19:09.593Z,85.49
2023-03-04T08:21:37.980Z,84.76
2023-03-04T08:24:08.918Z,89.14
2023-03-04T08:26:42.084Z,85.88
2023-03-04T08:29:16.803Z,85.61
2023-03-04T08:31:48.774Z,81.96
2023-03-04T08:34:17.782Z,88.47
2023-03-04T08:36:45.958Z,85.81
2023-03-04T08:39:15.644Z,81.11
2023-03-04T08:41:43.331Z,76.67
2023-03-04T08:44:12.206Z,74.14
2023-03-04T08:46:41.552Z,74.91
2023-03-04T08:49:11.130Z,73.08
2023-03-04T08:51:39.102Z,69.53
2023-03-04T08:54:07.173Z,66.98
2023-03-04T08:56:35.151Z,66.19
2023-03-04T08:59:03.667Z,62.33
2023-03-04T09:01:32.099Z,55.62
2023-03-04T09:03:59.765Z,54.29
2023-03-04T09:06:27.984Z,51.98
2023-03-04T09:08:55.966Z,47.32
2023-03-04T09:11:23.607Z,50.25
2023-03-04T09:13:51.949Z,48.77
2023-03-04T09:16:19.725Z,45.90
2023-03-04T09:18:47.435Z,47.30
2023-03-04T09:21:16.490Z,46.21
2023-03-04T09:23:44.519Z,45.34
2023-03-04T09:26:25.406Z,46.11
2023-03-04T09:28:58.125Z,45.64
2023-03-04T09:31:27.006Z,42.54
2023-03-04T09:33:57.302Z,41.54
2023-03-04T09:36:25.573Z,43.22
2023-03-04T09:38:53.506Z,41.17
2023-03-04T09:41:37.282Z,39.94
2023-03-04T09:44:15.616Z,38.02
2023-03-04T09:46:46.191Z,39.50
2023-03-04T09:49:15.189Z,39.74
2023-03-04T09:51:59.629Z,39.00
2023-03-04T09:54:48.433Z,39.69
2023-03-04T09:57:45.848Z,41.70
2023-03-04T10:00:26.423Z,41.42
2023-03-04T10:03:12.094Z,41.63
2023-03-04T10:05:55.531Z,41.65
2023-03-04T10:08:42.257Z,40.97
2023-03-04T10:11:16.497Z,39.51
2023-03-04T10:14:21.567Z,37.08
2023-03-04T10:16:59.536Z,34.98
2023-03-04T10:19:57.265Z,33.61
2023-03-04T10:22:42.225Z,32.14
2023-03-04T10:25:19.306Z,31.69
2023-03-04T10:28:13.009Z,32.96
2023-03-04T10:30:51.523Z,32.90
2023-03-04T10:33:26.670Z,30.83
2023-03-04T10:36:18.259Z,32.52
2023-03-04T10:38:46.324Z,32.45
2023-03-04T10:41:26.289Z,32.86
2023-03-04T10:43:59.937Z,32.13
2023-03-04T10:46:27.393Z,33.47
2023-03-04T10:48:55.823Z,35.21
2023-03-04T10:51:29.276Z,32.86
2023-03-04T10:54:10.376Z,32.32
2023-03-04T10:56:45.542Z,31.22
2023-03-04T10:59:41.359Z,33.11
2023-03-04T11:02:22.486Z,34.58
2023-03-04T11:05:17.836Z,33.93
2023-03-04T11:07:59.135Z,32.96
2023-03-04T11:10:36.334Z,33.64
2023-03-04T11:13:20.478Z,33.92
2023-03-04T11:15:58.116Z,34.06
2023-03-04T11:18:47.798Z,34.84
2023-03-04T11:21:25.357Z,35.29
2023-03-04T11:24:01.986Z,36.67
2023-03-04T11:26:41.182Z,38.77
2023-03-04T11:29:32.343Z,37.26
2023-03-04T11:32:27.655Z,34.93
2023-03-04T11:35:07.487Z,34.68
2023-03-04T11:37:46.071Z,37.85
2023-03-04T11:40:28.852Z,37.64
2023-03-04T11:43:12.553Z,36.67
2023-03-04T11:46:27.020Z,37.80
2023-03-04T11:49:29.396Z,36.91
2023-03-04T11:52:18.812Z,35.52
2023-03-04T11:54:59.084Z,34.25
2023-03-04T11:57:38.844Z,32.95
2023-03-04T12:00:25.093Z,32.70
2023-03-04T12:03:04.454Z,34.12
2023-03-04T12:05:56.954Z,33.98
2023-03-04T12:08:43.312Z,34.58
2023-03-04T12:11:45.796Z,33.25
2023-03-04T12:14:21.872Z,32.52
2023-03-04T12:17:09.715Z,32.93
2023-03-04T12:20:08.663Z,33.84
2023-03-04T12:23:02.510Z,32.05
2023-03-04T12:25:37.117Z,32.96
2023-03-04T12:28:27.769Z,33.11
2023-03-04T12:31:11.142Z,34.07
2023-03-04T12:33:49.049Z,34.63
2023-03-04T12:36:49.800Z,33.37
2023-03-04T12:39:27.511Z,32.03
2023-03-04T12:41:55.152Z,33.23
2023-03-04T12:44:23.595Z,33.04
2023-03-04T12:47:16.422Z,32.39
2023-03-04T12:49:57.038Z,29.96
2023-03-04T12:52:30.557Z,29.45
2023-03-04T12:55:18.290Z,30.34
2023-03-04T12:57:47.001Z,32.64
2023-03-04T13:00:46.205Z,31.77
2023-03-04T13:03:20.403Z,30.96
2023-03-04T13:05:58.378Z,31.90
2023-03-04T13:08:38.007Z,31.00
2023-03-04T13:11:28.182Z,32.61
2023-03-04T13:14:05.918Z,31.21
2023-03-04T13:16:41.577Z,30.35
2023-03-04T13:19:44.631Z,31.74
2023-03-04T13:22:30.386Z,34.26
2023-03-04T13:24:59.780Z,34.93
2023-03-04T13:27:48.720Z,32.26
2023-03-04T13:30:33.426Z,32.44
2023-03-04T13:33:10.489Z,31.38
2023-03-04T13:35:50.342Z,31.40
2023-03-04T13:38:23.736Z,33.01
2023-03-04T13:41:00.382Z,31.52
2023-03-04T13:43:36.626Z,29.97
2023-03-04T13:46:19.525Z,29.35
2023-03-04T13:48:50.926Z,28.67
2023-03-04T13:51:45.046Z,28.78
2023-03-04T13:54:21.679Z,28.47
2023-03-04T13:57:01.632Z,27.62
2023-03-04T14:00:06.504Z,26.39
2023-03-04T14:02:36.467Z,27.22
2023-03-04T14:05:04.734Z,27.85
2023-03-04T14:07:39.674Z,25.56
2023-03-04T14:10:14.987Z,27.52
2023-03-04T14:12:49.734Z,25.98
2023-03-04T14:15:24.844Z,24.06
2023-03-04T14:18:01.089Z,25.25
2023-03-04T14:20:37.142Z,24.77
2023-03-04T14:23:24.412Z,26.71
2023-03-04T14:25:52.346Z,26.21
2023-03-04T14:28:21.542Z,28.04
2023-03-04T14:30:54.761Z,27.67
2023-03-04T14:33:25.989Z,27.10
2023-03-04T14:35:57.258Z,27.72
2023-03-04T14:38:35.937Z,27.97
2023-03-04T14:41:21.611Z,27.05
2023-03-04T14:44:14.200Z,27.44
2023-03-04T14:47:04.646Z,28.63
2023-03-04T14:49:37.019Z,27.99
2023-03-04T14:52:05.226Z,26.40
2023-03-04T14:54:41.531Z,25.83
2023-03-04T14:57:29.945Z,25.61
2023-03-04T14:59:57.595Z,26.56
2023-03-04T15:02:39.731Z,24.94
2023-03-04T15:05:17.896Z,24.54
2023-03-04T15:07:58.465Z,24.82
2023-03-04T15:10:34.028Z,27.55
2023-03-04T15:13:03.966Z,28.34
2023-03-04T15:15:37.076Z,28.29
2023-03-04T15:18:26.331Z,28.34
2023-03-04T15:20:59.732Z,27.33
2023-03-04T15:23:29.556Z,28.30
2023-03-04T15:26:00.587Z,28.78
2023-03-04T15:28:37.835Z,30.91
2023-03-04T15:31:09.952Z,30.02
2023-03-04T15:33:41.511Z,30.80
2023-03-04T15:36:14.222Z,30.25
2023-03-04T15:38:50.351Z,30.47
2023-03-04T15:41:23.483Z,28.36
2023-03-04T15:43:52.944Z,27.00
2023-03-04T15:46:21.449Z,27.30
2023-03-04T15:48:49.571Z,29.06
2023-03-04T15:51:22.939Z,30.00
2023-03-04T15:53:53.442Z,31.09
2023-03-04T15:56:25.117Z,32.88
2023-03-04T15:58:56.728Z,34.09
2023-03-04T16:01:25.764Z,36.31
2023-03-04T16:03:53.957Z,39.29
2023-03-04T16:06:23.492Z,40.04
2023-03-04T16:08:52.311Z,40.83
2023-03-04T16:11:29.947Z,41.97
2023-03-04T16:13:58.671Z,41.98
2023-03-04T16:16:26.804Z,42.13
2023-03-04T16:18:54.294Z,43.09
2023-03-04T16:21:26.268Z,43.26
2023-03-04T16:23:54.774Z,43.32
2023-03-04T16:26:24.896Z,43.80
2023-03-04T16:28:53.719Z,44.10
2023-03-04T16:31:22.508Z,44.67
2023-03-04T16:33:50.446Z,44.83
2023-03-04T16:36:24.463Z,45.48
2023-03-04T16:38:55.924Z,46.13
2023-03-04T16:41:28.050Z,46.30
2023-03-04T16:43:57.061Z,47.03
2023-03-04T16:46:25.492Z,47.31
2023-03-04T16:48:54.057Z,47.28
2023-03-04T16:51:23.756Z,47.54
2023-03-04T16:54:00.300Z,47.94
2023-03-04T16:56:28.964Z,48.73
2023-03-04T16:58:56.585Z,48.95
2023-03-04T17:01:26.908Z,49.48
2023-03-04T17:03:55.822Z,50.19
2023-03-04T17:06:24.552Z,50.72
2023-03-04T17:08:52.709Z,51.90
2023-03-04T17:11:22.893Z,53.10
2023-03-04T17:13:51.608Z,53.19
2023-03-04T17:16:19.764Z,53.91
2023-03-04T17:18:47.366Z,55.48
2023-03-04T17:21:18.568Z,55.53
2023-03-04T17:23:46.685Z,56.42
2023-03-04T17:26:15.561Z,56.54
2023-03-04T17:28:43.541Z,58.71
2023-03-04T17:31:16.563Z,60.71
2023-03-04T17:33:45.408Z,61.85
2023-03-04T17:36:15.061Z,61.95
2023-03-04T17:38:43.299Z,62.31
2023-03-04T17:41:16.138Z,63.28
2023-03-04T17:43:50.635Z,62.90
2023-03-04T17:46:22.089Z,64.75
2023-03-04T17:48:52.346Z,65.42
2023-03-04T17:51:20.572Z,65.52
2023-03-04T17:53:48.571Z,65.92
2023-03-04T17:56:16.324Z,65.57
2023-03-04T17:58:44.389Z,66.65
2023-03-04T18:01:19.360Z,68.16
2023-03-04T18:03:47.848Z,67.15
2023-03-04T18:06:17.221Z,67.40
2023-03-04T18:08:45.896Z,68.50
2023-03-04T18:11:13.502Z,69.28
2023-03-04T18:13:43.472Z,69.08
2023-03-04T18:16:14.808Z,69.39
2023-03-04T18:18:43.846Z,70.27
2023-03-04T18:21:13.597Z,70.35
2023-03-04T18:23:41.845Z,70.93
2023-03-04T18:26:10.699Z,71.07
2023-03-04T18:28:38.938Z,72.01
2023-03-04T18:31:07.062Z,72.74
2023-03-04T18:33:35.123Z,73.80
2023-03-04T18:36:08.236Z,75.67
2023-03-04T18:38:35.991Z,75.99
2023-03-04T18:41:08.908Z,75.83
2023-03-04T18:43:36.900Z,76.27
2023-03-04T18:46:11.928Z,76.44
2023-03-04T18:48:43.552Z,77.72
2023-03-04T18:51:12.192Z,78.65
2023-03-04T18:53:40.862Z,77.79
2023-03-04T18:56:13.751Z,77.85
2023-03-04T18:58:44.598Z,79.82
2023-03-04T19:01:14.535Z,82.29
2023-03-04T19:03:43.767Z,81.67
2023-03-04T19:06:11.317Z,81.85
2023-03-04T19:08:39.298Z,82.13
2023-03-04T19:11:06.917Z,79.93
2023-03-04T19:13:35.314Z,81.34
2023-03-04T19:16:03.279Z,81.19
2023-03-04T19:18:30.941Z,81.14
2023-03-04T19:21:03.647Z,83.06
2023-03-04T19:23:33.829Z,82.74
2023-03-04T19:26:01.637Z,82.99
2023-03-04T19:28:29.684Z,83.62
2023-03-04T19:30:59.221Z,84.94
2023-03-04T19:33:27.599Z,85.96
2023-03-04T19:35:55.255Z,86.33
2023-03-04T19:38:23.647Z,86.38
2023-03-04T19:40:51.768Z,87.76
2023-03-04T19:43:19.487Z,87.97
2023-03-04T19:45:56.989Z,88.60
2023-03-04T19:48:25.149Z,87.97
2023-03-04T19:50:53.165Z,88.29
2023-03-04T19:53:21.188Z,89.30
2023-03-04T19:55:49.739Z,89.07
2023-03-04T19:58:18.488Z,89.17
2023-03-04T20:00:46.781Z,90.63
2023-03-04T20:03:14.907Z,89.76
2023-03-04T20:05:42.440Z,90.30
2023-03-04T20:08:09.985Z,90.72
2023-03-04T20:10:38.115Z,91.52
2023-03-04T20:13:08.581Z,89.94
2023-03-04T20:15:37.514Z,90.13
2023-03-04T20:18:05.345Z,90.78
2023-03-04T20:20:33.946Z,92.72
2023-03-04T20:23:01.690Z,94.04
2023-03-04T20:25:31.990Z,95.18
2023-03-04T20:27:59.645Z,95.50
2023-03-04T20:30:28.140Z,95.34
2023-03-04T20:32:56.856Z,95.41
2023-03-04T20:35:24.793Z,95.58
2023-03-04T20:37:52.796Z,95.09
2023-03-04T20:40:20.471Z,95.61
2023-03-04T20:42:48.639Z,96.72
2023-03-04T20:45:16.342Z,96.56
2023-03-04T20:47:43.781Z,97.20
2023-03-04T20:50:11.962Z,98.19
2023-03-04T20:52:40.288Z,97.07
2023-03-04T20:55:08.752Z,96.95
2023-03-04T20:57:36.289Z,96.70
2023-03-04T21:00:05.586Z,97.95
2023-03-04T21:02:33.669Z,97.95
2023-03-04T21:05:01.773Z,99.40
2023-03-04T21:07:29.387Z,100.00
2023-03-04T21:09:57.161Z,100.00
2023-03-04T21:12:26.194Z,100.00
2023-03-04T21:14:54.120Z,100.00
2023-03-04T21:17:24.489Z,100.00
2023-03-04T21:19:51.971Z,100.00
2023-03-04T21:22:20.524Z,100.00
2023-03-04T21:24:48.537Z,100.00
2023-03-04T21:27:17.028Z,100.00
2023-03-04T21:29:45.229Z,100.00
2023-03-04T21:32:27.095Z,100.00
2023-03-04T21:34:55.951Z,100.00
2023-03-04T21:37:25.145Z,100.00
2023-03-04T21:39:54.417Z,100.00
2023-03-04T21:42:22.672Z,100.00
2023-03-04T21:44:51.769Z,100.00
2023-03-04T21:47:21.034Z,100.00
2023-03-04T21:49:49.285Z,100.00
2023-03-04T21:52:19.640Z,100.00
2023-03-04T21:54:49.670Z,100.00
2023-03-04T21:57:18.018Z,100.00
2023-03-04T21:59:45.901Z,100.00
2023-03-04T22:02:16.955Z,100.00
2023-03-04T22:04:45.791Z,100.00
2023-03-04T22:07:14.772Z,100.00
2023-03-04T22:09:42.766Z,100.00
2023-03-04T22:12:10.606Z,100.00
2023-03-04T22:14:38.301Z,100.00
2023-03-04T22:17:07.022Z,100.00
2023-03-04T22:19:34.547Z,100.00
2023-03-04T22:22:02.668Z,100.00
2023-03-04T22:24:30.685Z,100.00
2023-03-04T22:26:59.897Z,100.00
2023-03-04T22:29:28.160Z,100.00
2023-03-04T22:31:56.788Z,100.00
2023-03-04T22:34:24.441Z,100.00
2023-03-04T22:36:52.446Z,100.00
2023-03-04T22:39:20.459Z,100.00
2023-03-04T22:41:49.033Z,100.00
2023-03-04T22:44:17.002Z,100.00
2023-03-04T22:46:44.784Z,100.00
2023-03-04T22:49:13.936Z,100.00
2023-03-04T22:51:43.296Z,100.00
2023-03-04T22:54:15.797Z,100.00
2023-03-04T22:56:44.175Z,100.00
2023-03-04T22:59:12.251Z,100.00
2023-03-04T23:01:40.543Z,100.00
2023-03-04T23:04:09.158Z,100.00
2023-03-04T23:06:37.803Z,100.00
2023-03-04T23:09:06.283Z,100.00
2023-03-04T23:11:39.461Z,100.00
2023-03-04T23:14:08.482Z,100.00
2023-03-04T23:16:41.092Z,100.00
2023-03-04T23:19:12.622Z,100.00
2023-03-04T23:21:41.202Z,100.00
2023-03-04T23:24:11.207Z,100.00
2023-03-04T23:26:41.178Z,100.00
2023-03-04T23:29:11.801Z,100.00
2023-03-04T23:31:39.913Z,100.00
2023-03-04T23:34:08.524Z,100.00
2023-03-04T23:36:38.132Z,100.00
2023-03-04T23:39:07.126Z,100.00
2023-03-04T23:41:36.117Z,100.00
2023-03-04T23:44:05.297Z,100.00
2023-03-04T23:46:33.227Z,100.00
2023-03-04T23:49:00.894Z,100.00
2023-03-04T23:51:29.794Z,100.00
2023-03-04T23:53:57.888Z,100.00
2023-03-04T23:56:29.413Z,100.00
2023-03-04T23:58:59.471Z,100.00
